sensor_id;sensor_type;location;lat;lon;timestamp;P1;durP1;ratioP1;P2;durP2;ratioP2
974;SDS011;6115;49.296;10.602;2022-09-01T00:03:19;10.60;;;9.73;;
974;SDS011;6115;49.296;10.602;2022-09-01T00:08:22;11.20;;;10.20;;
974;SDS011;6115;49.296;10.602;2022-09-01T00:13:23;11.83;;;10.73;;
974;SDS011;6115;49.296;10.602;2022-09-01T00:18:24;11.27;;;10.27;;
974;SDS011;6115;49.296;10.602;2022-09-01T00:23:25;11.43;;;10.27;;
974;SDS011;6115;49.296;10.602;2022-09-01T00:28:26;10.40;;;9.50;;
974;SDS011;6115;49.296;10.602;2022-09-01T00:33:27;10.93;;;10.07;;
974;SDS011;6115;49.296;10.602;2022-09-01T00:38:27;11.00;;;10.10;;
974;SDS011;6115;49.296;10.602;2022-09-01T00:43:45;12.13;;;10.83;;
974;SDS011;6115;49.296;10.602;2022-09-01T00:48:50;10.77;;;9.77;;
974;SDS011;6115;49.296;10.602;2022-09-01T00:53:55;11.23;;;10.13;;
974;SDS011;6115;49.296;10.602;2022-09-01T00:58:57;10.43;;;9.53;;
974;SDS011;6115;49.296;10.602;2022-09-01T01:04:00;11.13;;;10.13;;
974;SDS011;6115;49.296;10.602;2022-09-01T01:09:01;11.43;;;10.33;;
974;SDS011;6115;49.296;10.602;2022-09-01T01:14:03;12.50;;;10.17;;
974;SDS011;6115;49.296;10.602;2022-09-01T01:19:13;11.13;;;10.03;;
974;SDS011;6115;49.296;10.602;2022-09-01T01:24:37;11.53;;;10.43;;
974;SDS011;6115;49.296;10.602;2022-09-01T01:29:37;11.20;;;10.00;;
974;SDS011;6115;49.296;10.602;2022-09-01T01:34:39;11.00;;;10.00;;
974;SDS011;6115;49.296;10.602;2022-09-01T01:39:42;11.80;;;10.70;;
974;SDS011;6115;49.296;10.602;2022-09-01T01:44:43;11.60;;;10.60;;
974;SDS011;6115;49.296;10.602;2022-09-01T01:49:45;13.57;;;12.00;;
974;SDS011;6115;49.296;10.602;2022-09-01T01:54:48;13.87;;;12.60;;
974;SDS011;6115;49.296;10.602;2022-09-01T01:59:49;13.70;;;12.40;;
974;SDS011;6115;49.296;10.602;2022-09-01T02:04:49;12.30;;;11.10;;
974;SDS011;6115;49.296;10.602;2022-09-01T02:09:50;11.77;;;10.77;;
974;SDS011;6115;49.296;10.602;2022-09-01T02:14:51;11.93;;;10.83;;
974;SDS011;6115;49.296;10.602;2022-09-01T02:19:55;12.10;;;11.00;;
974;SDS011;6115;49.296;10.602;2022-09-01T02:24:56;12.30;;;11.10;;
974;SDS011;6115;49.296;10.602;2022-09-01T02:29:57;12.30;;;11.20;;
974;SDS011;6115;49.296;10.602;2022-09-01T02:34:57;12.03;;;11.03;;
974;SDS011;6115;49.296;10.602;2022-09-01T02:40:00;14.13;;;12.73;;
974;SDS011;6115;49.296;10.602;2022-09-01T02:45:01;12.10;;;11.03;;
974;SDS011;6115;49.296;10.602;2022-09-01T02:50:02;13.90;;;12.60;;
974;SDS011;6115;49.296;10.602;2022-09-01T02:55:03;14.70;;;13.30;;
974;SDS011;6115;49.296;10.602;2022-09-01T03:00:05;14.73;;;13.33;;
974;SDS011;6115;49.296;10.602;2022-09-01T03:05:19;17.63;;;13.77;;
974;SDS011;6115;49.296;10.602;2022-09-01T03:10:25;14.70;;;13.20;;
974;SDS011;6115;49.296;10.602;2022-09-01T03:15:31;14.07;;;12.77;;
974;SDS011;6115;49.296;10.602;2022-09-01T03:20:34;13.87;;;12.53;;
974;SDS011;6115;49.296;10.602;2022-09-01T03:25:36;14.20;;;12.90;;
974;SDS011;6115;49.296;10.602;2022-09-01T03:30:37;15.60;;;13.20;;
974;SDS011;6115;49.296;10.602;2022-09-01T03:35:39;14.97;;;13.60;;
974;SDS011;6115;49.296;10.602;2022-09-01T03:40:40;14.50;;;13.20;;
974;SDS011;6115;49.296;10.602;2022-09-01T03:45:41;15.93;;;14.33;;
974;SDS011;6115;49.296;10.602;2022-09-01T03:50:43;15.47;;;13.97;;
974;SDS011;6115;49.296;10.602;2022-09-01T03:55:45;15.40;;;13.80;;
974;SDS011;6115;49.296;10.602;2022-09-01T04:00:49;15.87;;;13.80;;
974;SDS011;6115;49.296;10.602;2022-09-01T04:05:54;15.53;;;13.97;;
974;SDS011;6115;49.296;10.602;2022-09-01T04:10:55;15.40;;;13.80;;
974;SDS011;6115;49.296;10.602;2022-09-01T04:15:57;15.70;;;14.20;;
974;SDS011;6115;49.296;10.602;2022-09-01T04:20:58;15.47;;;13.90;;
974;SDS011;6115;49.296;10.602;2022-09-01T04:26:00;14.87;;;12.80;;
974;SDS011;6115;49.296;10.602;2022-09-01T04:31:09;14.40;;;12.93;;
974;SDS011;6115;49.296;10.602;2022-09-01T04:36:15;13.63;;;12.17;;
974;SDS011;6115;49.296;10.602;2022-09-01T04:41:30;13.63;;;12.33;;
974;SDS011;6115;49.296;10.602;2022-09-01T04:46:33;13.80;;;12.40;;
974;SDS011;6115;49.296;10.602;2022-09-01T04:51:39;14.47;;;12.97;;
974;SDS011;6115;49.296;10.602;2022-09-01T04:56:42;14.97;;;13.17;;
974;SDS011;6115;49.296;10.602;2022-09-01T05:01:44;13.87;;;12.47;;
974;SDS011;6115;49.296;10.602;2022-09-01T05:06:46;14.23;;;12.70;;
974;SDS011;6115;49.296;10.602;2022-09-01T05:11:49;16.33;;;14.63;;
974;SDS011;6115;49.296;10.602;2022-09-01T05:16:54;17.37;;;14.37;;
974;SDS011;6115;49.296;10.602;2022-09-01T05:21:59;15.30;;;13.80;;
974;SDS011;6115;49.296;10.602;2022-09-01T05:26:59;15.27;;;13.80;;
974;SDS011;6115;49.296;10.602;2022-09-01T05:32:00;14.37;;;12.87;;
974;SDS011;6115;49.296;10.602;2022-09-01T05:37:07;14.60;;;13.30;;
974;SDS011;6115;49.296;10.602;2022-09-01T05:42:08;14.13;;;12.73;;
974;SDS011;6115;49.296;10.602;2022-09-01T05:47:09;13.43;;;12.23;;
974;SDS011;6115;49.296;10.602;2022-09-01T05:52:11;15.77;;;12.90;;
974;SDS011;6115;49.296;10.602;2022-09-01T05:57:12;14.40;;;12.90;;
974;SDS011;6115;49.296;10.602;2022-09-01T06:02:12;13.30;;;12.10;;
974;SDS011;6115;49.296;10.602;2022-09-01T06:07:14;14.23;;;12.80;;
974;SDS011;6115;49.296;10.602;2022-09-01T06:12:16;12.30;;;11.10;;
974;SDS011;6115;49.296;10.602;2022-09-01T06:17:17;11.27;;;10.27;;
974;SDS011;6115;49.296;10.602;2022-09-01T06:22:22;12.60;;;11.40;;
974;SDS011;6115;49.296;10.602;2022-09-01T06:27:25;12.80;;;11.47;;
974;SDS011;6115;49.296;10.602;2022-09-01T06:32:26;13.67;;;12.10;;
974;SDS011;6115;49.296;10.602;2022-09-01T06:37:26;11.97;;;10.87;;
974;SDS011;6115;49.296;10.602;2022-09-01T06:42:29;12.20;;;11.00;;
974;SDS011;6115;49.296;10.602;2022-09-01T06:47:34;11.03;;;10.13;;
974;SDS011;6115;49.296;10.602;2022-09-01T06:52:35;11.30;;;10.20;;
974;SDS011;6115;49.296;10.602;2022-09-01T06:57:39;10.70;;;9.80;;
974;SDS011;6115;49.296;10.602;2022-09-01T07:02:52;11.13;;;10.13;;
974;SDS011;6115;49.296;10.602;2022-09-01T07:07:56;10.83;;;9.87;;
974;SDS011;6115;49.296;10.602;2022-09-01T07:12:58;10.73;;;9.83;;
974;SDS011;6115;49.296;10.602;2022-09-01T07:18:00;11.40;;;10.30;;
974;SDS011;6115;49.296;10.602;2022-09-01T07:23:01;11.20;;;10.30;;
974;SDS011;6115;49.296;10.602;2022-09-01T07:28:01;11.17;;;10.10;;
974;SDS011;6115;49.296;10.602;2022-09-01T07:33:02;13.53;;;10.77;;
974;SDS011;6115;49.296;10.602;2022-09-01T07:38:08;10.67;;;9.60;;
974;SDS011;6115;49.296;10.602;2022-09-01T07:43:16;9.70;;;8.90;;
974;SDS011;6115;49.296;10.602;2022-09-01T07:48:23;9.60;;;8.80;;
974;SDS011;6115;49.296;10.602;2022-09-01T07:53:27;9.27;;;8.47;;
974;SDS011;6115;49.296;10.602;2022-09-01T07:58:30;9.70;;;9.00;;
974;SDS011;6115;49.296;10.602;2022-09-01T08:03:32;10.63;;;9.73;;
974;SDS011;6115;49.296;10.602;2022-09-01T08:08:34;9.80;;;9.00;;
974;SDS011;6115;49.296;10.602;2022-09-01T08:13:36;9.17;;;8.43;;
974;SDS011;6115;49.296;10.602;2022-09-01T08:18:37;9.60;;;8.80;;
974;SDS011;6115;49.296;10.602;2022-09-01T08:23:38;9.97;;;8.97;;
974;SDS011;6115;49.296;10.602;2022-09-01T08:28:38;8.30;;;7.60;;
974;SDS011;6115;49.296;10.602;2022-09-01T08:33:40;8.60;;;7.80;;
974;SDS011;6115;49.296;10.602;2022-09-01T08:38:42;8.40;;;7.70;;
974;SDS011;6115;49.296;10.602;2022-09-01T08:43:47;8.13;;;7.53;;
974;SDS011;6115;49.296;10.602;2022-09-01T08:49:00;8.07;;;7.43;;
974;SDS011;6115;49.296;10.602;2022-09-01T08:59:17;7.30;;;6.80;;
974;SDS011;6115;49.296;10.602;2022-09-01T09:09:35;8.03;;;7.40;;
974;SDS011;6115;49.296;10.602;2022-09-01T09:20:03;6.50;;;5.87;;
974;SDS011;6115;49.296;10.602;2022-09-01T09:30:22;6.57;;;6.03;;
974;SDS011;6115;49.296;10.602;2022-09-01T09:35:32;6.97;;;6.47;;
974;SDS011;6115;49.296;10.602;2022-09-01T09:40:53;10.27;;;7.00;;
974;SDS011;6115;49.296;10.602;2022-09-01T09:51:43;6.87;;;6.37;;
974;SDS011;6115;49.296;10.602;2022-09-01T09:56:48;8.87;;;7.27;;
974;SDS011;6115;49.296;10.602;2022-09-01T10:02:15;15.63;;;7.63;;
974;SDS011;6115;49.296;10.602;2022-09-01T10:07:36;7.10;;;6.47;;
974;SDS011;6115;49.296;10.602;2022-09-01T10:12:37;7.70;;;6.17;;
974;SDS011;6115;49.296;10.602;2022-09-01T10:17:39;7.13;;;6.43;;
974;SDS011;6115;49.296;10.602;2022-09-01T10:22:41;7.40;;;6.80;;
974;SDS011;6115;49.296;10.602;2022-09-01T10:27:43;8.97;;;6.10;;
974;SDS011;6115;49.296;10.602;2022-09-01T10:32:50;6.70;;;6.17;;
974;SDS011;6115;49.296;10.602;2022-09-01T10:37:53;6.23;;;5.63;;
974;SDS011;6115;49.296;10.602;2022-09-01T10:43:00;6.43;;;5.83;;
974;SDS011;6115;49.296;10.602;2022-09-01T10:48:29;6.87;;;6.17;;
974;SDS011;6115;49.296;10.602;2022-09-01T10:53:41;6.40;;;5.90;;
974;SDS011;6115;49.296;10.602;2022-09-01T10:58:52;7.73;;;7.03;;
974;SDS011;6115;49.296;10.602;2022-09-01T11:09:33;5.33;;;4.93;;
974;SDS011;6115;49.296;10.602;2022-09-01T11:14:46;5.90;;;5.30;;
974;SDS011;6115;49.296;10.602;2022-09-01T11:25:09;5.33;;;4.83;;
974;SDS011;6115;49.296;10.602;2022-09-01T11:30:14;5.27;;;4.77;;
974;SDS011;6115;49.296;10.602;2022-09-01T11:35:35;5.57;;;5.07;;
974;SDS011;6115;49.296;10.602;2022-09-01T11:40:36;5.00;;;4.50;;
974;SDS011;6115;49.296;10.602;2022-09-01T11:45:40;4.77;;;4.47;;
974;SDS011;6115;49.296;10.602;2022-09-01T11:51:03;6.47;;;4.37;;
974;SDS011;6115;49.296;10.602;2022-09-01T11:56:12;4.70;;;4.40;;
974;SDS011;6115;49.296;10.602;2022-09-01T12:01:19;5.00;;;4.60;;
974;SDS011;6115;49.296;10.602;2022-09-01T12:06:26;4.73;;;4.30;;
974;SDS011;6115;49.296;10.602;2022-09-01T12:11:29;4.97;;;4.67;;
974;SDS011;6115;49.296;10.602;2022-09-01T12:16:32;6.67;;;4.40;;
974;SDS011;6115;49.296;10.602;2022-09-01T12:21:37;4.97;;;4.57;;
974;SDS011;6115;49.296;10.602;2022-09-01T12:26:41;4.37;;;4.07;;
974;SDS011;6115;49.296;10.602;2022-09-01T12:31:45;5.00;;;4.50;;
974;SDS011;6115;49.296;10.602;2022-09-01T12:37:00;4.60;;;4.20;;
974;SDS011;6115;49.296;10.602;2022-09-01T12:47:13;4.23;;;3.83;;
974;SDS011;6115;49.296;10.602;2022-09-01T12:52:44;4.43;;;4.13;;
974;SDS011;6115;49.296;10.602;2022-09-01T12:57:59;17.97;;;4.80;;
974;SDS011;6115;49.296;10.602;2022-09-01T13:08:11;4.37;;;4.00;;
974;SDS011;6115;49.296;10.602;2022-09-01T13:13:14;4.43;;;4.00;;
974;SDS011;6115;49.296;10.602;2022-09-01T13:18:16;4.50;;;4.10;;
974;SDS011;6115;49.296;10.602;2022-09-01T13:23:19;4.30;;;4.00;;
974;SDS011;6115;49.296;10.602;2022-09-01T13:28:20;4.17;;;3.83;;
974;SDS011;6115;49.296;10.602;2022-09-01T13:33:23;4.60;;;4.20;;
974;SDS011;6115;49.296;10.602;2022-09-01T13:38:25;3.67;;;3.37;;
974;SDS011;6115;49.296;10.602;2022-09-01T13:43:25;4.30;;;3.70;;
974;SDS011;6115;49.296;10.602;2022-09-01T13:48:26;3.60;;;3.30;;
974;SDS011;6115;49.296;10.602;2022-09-01T13:53:27;3.90;;;3.70;;
974;SDS011;6115;49.296;10.602;2022-09-01T13:58:28;3.90;;;3.60;;
974;SDS011;6115;49.296;10.602;2022-09-01T14:03:29;3.50;;;3.27;;
974;SDS011;6115;49.296;10.602;2022-09-01T14:08:31;4.57;;;4.03;;
974;SDS011;6115;49.296;10.602;2022-09-01T14:13:33;3.97;;;3.40;;
974;SDS011;6115;49.296;10.602;2022-09-01T14:18:34;3.97;;;3.60;;
974;SDS011;6115;49.296;10.602;2022-09-01T14:23:35;4.73;;;4.33;;
974;SDS011;6115;49.296;10.602;2022-09-01T14:28:36;4.60;;;4.20;;
974;SDS011;6115;49.296;10.602;2022-09-01T14:33:38;5.40;;;5.00;;
974;SDS011;6115;49.296;10.602;2022-09-01T14:38:39;4.07;;;3.80;;
974;SDS011;6115;49.296;10.602;2022-09-01T14:43:40;4.20;;;3.77;;
974;SDS011;6115;49.296;10.602;2022-09-01T14:48:42;4.50;;;4.10;;
974;SDS011;6115;49.296;10.602;2022-09-01T14:53:42;4.53;;;4.00;;
974;SDS011;6115;49.296;10.602;2022-09-01T14:58:46;6.63;;;3.87;;
974;SDS011;6115;49.296;10.602;2022-09-01T15:03:47;4.53;;;4.13;;
974;SDS011;6115;49.296;10.602;2022-09-01T15:08:48;3.43;;;3.13;;
974;SDS011;6115;49.296;10.602;2022-09-01T15:13:49;4.07;;;3.77;;
974;SDS011;6115;49.296;10.602;2022-09-01T15:18:51;3.60;;;3.30;;
974;SDS011;6115;49.296;10.602;2022-09-01T15:23:52;3.87;;;3.67;;
974;SDS011;6115;49.296;10.602;2022-09-01T15:28:53;4.40;;;3.50;;
974;SDS011;6115;49.296;10.602;2022-09-01T15:33:54;3.20;;;2.90;;
974;SDS011;6115;49.296;10.602;2022-09-01T15:38:56;3.47;;;2.90;;
974;SDS011;6115;49.296;10.602;2022-09-01T15:43:57;3.57;;;3.27;;
974;SDS011;6115;49.296;10.602;2022-09-01T15:48:58;3.80;;;3.53;;
974;SDS011;6115;49.296;10.602;2022-09-01T15:54:05;3.70;;;3.40;;
974;SDS011;6115;49.296;10.602;2022-09-01T15:59:06;5.30;;;3.77;;
974;SDS011;6115;49.296;10.602;2022-09-01T16:04:10;3.63;;;3.43;;
974;SDS011;6115;49.296;10.602;2022-09-01T16:09:11;3.53;;;3.20;;
974;SDS011;6115;49.296;10.602;2022-09-01T16:14:12;4.20;;;3.90;;
974;SDS011;6115;49.296;10.602;2022-09-01T16:19:20;3.50;;;3.30;;
974;SDS011;6115;49.296;10.602;2022-09-01T16:24:23;4.30;;;4.00;;
974;SDS011;6115;49.296;10.602;2022-09-01T16:34:46;4.10;;;3.80;;
974;SDS011;6115;49.296;10.602;2022-09-01T16:40:02;4.90;;;4.50;;
974;SDS011;6115;49.296;10.602;2022-09-01T16:50:51;4.87;;;4.47;;
974;SDS011;6115;49.296;10.602;2022-09-01T16:56:04;5.53;;;4.73;;
974;SDS011;6115;49.296;10.602;2022-09-01T17:11:56;4.03;;;3.70;;
974;SDS011;6115;49.296;10.602;2022-09-01T17:17:19;4.70;;;4.20;;
974;SDS011;6115;49.296;10.602;2022-09-01T17:22:29;4.30;;;3.90;;
974;SDS011;6115;49.296;10.602;2022-09-01T17:27:52;4.60;;;4.20;;
974;SDS011;6115;49.296;10.602;2022-09-01T17:33:06;4.93;;;4.53;;
974;SDS011;6115;49.296;10.602;2022-09-01T17:43:38;4.93;;;4.53;;
974;SDS011;6115;49.296;10.602;2022-09-01T17:49:01;5.57;;;4.70;;
974;SDS011;6115;49.296;10.602;2022-09-01T17:59:55;4.30;;;3.90;;
974;SDS011;6115;49.296;10.602;2022-09-01T18:05:10;3.80;;;3.50;;
974;SDS011;6115;49.296;10.602;2022-09-01T18:10:14;3.97;;;3.57;;
974;SDS011;6115;49.296;10.602;2022-09-01T18:15:20;4.43;;;3.50;;
974;SDS011;6115;49.296;10.602;2022-09-01T18:20:27;4.00;;;3.60;;
974;SDS011;6115;49.296;10.602;2022-09-01T18:25:38;4.40;;;3.70;;
974;SDS011;6115;49.296;10.602;2022-09-01T18:30:50;3.10;;;2.90;;
974;SDS011;6115;49.296;10.602;2022-09-01T18:36:19;3.90;;;3.40;;
974;SDS011;6115;49.296;10.602;2022-09-01T18:41:26;4.33;;;3.43;;
974;SDS011;6115;49.296;10.602;2022-09-01T18:46:40;3.47;;;3.10;;
974;SDS011;6115;49.296;10.602;2022-09-01T18:57:10;4.20;;;2.83;;
974;SDS011;6115;49.296;10.602;2022-09-01T19:08:06;3.50;;;3.20;;
974;SDS011;6115;49.296;10.602;2022-09-01T19:19:06;3.50;;;3.30;;
974;SDS011;6115;49.296;10.602;2022-09-01T19:24:14;4.50;;;3.80;;
974;SDS011;6115;49.296;10.602;2022-09-01T19:29:26;3.87;;;3.57;;
974;SDS011;6115;49.296;10.602;2022-09-01T19:34:32;3.60;;;3.30;;
974;SDS011;6115;49.296;10.602;2022-09-01T19:39:39;3.87;;;3.57;;
974;SDS011;6115;49.296;10.602;2022-09-01T19:55:41;3.30;;;3.10;;
974;SDS011;6115;49.296;10.602;2022-09-01T20:01:02;6.70;;;3.47;;
974;SDS011;6115;49.296;10.602;2022-09-01T20:06:29;4.70;;;3.53;;
974;SDS011;6115;49.296;10.602;2022-09-01T20:11:37;4.30;;;4.00;;
974;SDS011;6115;49.296;10.602;2022-09-01T20:16:48;4.50;;;4.20;;
974;SDS011;6115;49.296;10.602;2022-09-01T20:21:50;3.70;;;3.50;;
974;SDS011;6115;49.296;10.602;2022-09-01T20:27:13;3.80;;;3.50;;
974;SDS011;6115;49.296;10.602;2022-09-01T20:32:38;4.60;;;3.60;;
974;SDS011;6115;49.296;10.602;2022-09-01T20:37:45;8.27;;;4.07;;
974;SDS011;6115;49.296;10.602;2022-09-01T20:43:28;4.57;;;4.27;;
974;SDS011;6115;49.296;10.602;2022-09-01T20:48:36;4.73;;;4.30;;
974;SDS011;6115;49.296;10.602;2022-09-01T20:58:53;8.00;;;4.30;;
974;SDS011;6115;49.296;10.602;2022-09-01T21:20:43;4.33;;;3.90;;
974;SDS011;6115;49.296;10.602;2022-09-01T21:25:29;4.20;;;3.80;;
974;SDS011;6115;49.296;10.602;2022-09-01T21:30:30;3.73;;;3.50;;
974;SDS011;6115;49.296;10.602;2022-09-01T21:35:33;4.47;;;4.07;;
974;SDS011;6115;49.296;10.602;2022-09-01T21:40:34;4.20;;;3.90;;
974;SDS011;6115;49.296;10.602;2022-09-01T21:45:35;4.10;;;3.70;;
974;SDS011;6115;49.296;10.602;2022-09-01T21:50:37;5.50;;;3.87;;
974;SDS011;6115;49.296;10.602;2022-09-01T21:55:39;6.07;;;3.30;;
974;SDS011;6115;49.296;10.602;2022-09-01T22:00:40;4.63;;;3.63;;
974;SDS011;6115;49.296;10.602;2022-09-01T22:05:42;3.87;;;3.57;;
974;SDS011;6115;49.296;10.602;2022-09-01T22:10:45;3.60;;;3.30;;
974;SDS011;6115;49.296;10.602;2022-09-01T22:15:49;4.33;;;3.33;;
974;SDS011;6115;49.296;10.602;2022-09-01T22:20:59;3.50;;;2.90;;
974;SDS011;6115;49.296;10.602;2022-09-01T22:26:00;4.33;;;3.10;;
974;SDS011;6115;49.296;10.602;2022-09-01T22:31:01;3.40;;;2.90;;
974;SDS011;6115;49.296;10.602;2022-09-01T22:36:02;3.63;;;3.33;;
974;SDS011;6115;49.296;10.602;2022-09-01T22:41:02;3.87;;;3.47;;
974;SDS011;6115;49.296;10.602;2022-09-01T22:46:04;3.90;;;3.60;;
974;SDS011;6115;49.296;10.602;2022-09-01T22:51:05;3.13;;;2.87;;
974;SDS011;6115;49.296;10.602;2022-09-01T22:56:15;6.83;;;3.87;;
974;SDS011;6115;49.296;10.602;2022-09-01T23:01:24;4.10;;;3.80;;
974;SDS011;6115;49.296;10.602;2022-09-01T23:06:29;3.83;;;3.23;;
974;SDS011;6115;49.296;10.602;2022-09-01T23:11:31;4.27;;;3.93;;
974;SDS011;6115;49.296;10.602;2022-09-01T23:16:31;4.87;;;4.50;;
974;SDS011;6115;49.296;10.602;2022-09-01T23:21:34;5.23;;;4.83;;
974;SDS011;6115;49.296;10.602;2022-09-01T23:26:36;5.80;;;5.23;;
974;SDS011;6115;49.296;10.602;2022-09-01T23:31:37;4.73;;;4.00;;
974;SDS011;6115;49.296;10.602;2022-09-01T23:36:38;5.37;;;4.87;;
974;SDS011;6115;49.296;10.602;2022-09-01T23:41:39;5.17;;;4.67;;
974;SDS011;6115;49.296;10.602;2022-09-01T23:46:41;8.20;;;4.73;;
974;SDS011;6115;49.296;10.602;2022-09-01T23:51:44;8.90;;;4.60;;
974;SDS011;6115;49.296;10.602;2022-09-01T23:56:46;6.03;;;5.10;;
